Easterwood Field College Station US
ICAO: KCLL
IATA: CLL
Category: Medium
Scheduled Services: Yes

Elevation: 320 ft
TransAlt. 18000 ft.

Airport Communications:
ATIS:126.85
HOUSTON CNTR:120.4
CTAF:118.5
GND:128.7
MONTGOMERY CO RDO:122.2
TWR:118.5
UNICOM:122.95

KCLL Zoom In..

If you have problems with the map follow the link
https://www.worldairports.se/pages/airport.php?
ICAO=KCLL

Runways:

(A) RW 04 length 5150 ft width 150 ft
---- / hdg 44

(B) RW 10 length 5158 ft width 150 ft
---- / hdg 103

(C) RW 16 length 7000 ft width 146 ft
---- / hdg 163

(D) RW 22 length 5150 ft width 150 ft
---- / hdg 224

(E) RW 28 length 5158 ft width 150 ft
---- / hdg 283

(F) RW 34 length 7000 ft width 146 ft
ILS 111.70 / hdg 343

Location; KCLL
Day. 22 / Time. 17.24 Zulu
* Altimeter: 29.98
* Temperature: 11° c. 51.8°f.
* Wind from: 330° Speed 05 kn.
Dewpoint: 11° c.
Visibility: 1 m.
Clouds: Broken 400 ft.
Clouds: Overcast 1000 ft.
Conditions: Mist.

KCLL 221724Z 33005KT 1 3/4SM BR BKN004 OVC010 11/11 A2998 RMK AO2 RAE05 P0000 T01110111


Wind From 330°
Speed 05 kn.

 
 
jpsmedia.com for Web Design worldairports.se 2019   terms of use